Aérodrome :
LOGIN :

S'inscrire | Disclaimer

   EN    FR    IT 

 










Légende :    VFR   VFR Marginal   IFR   IFR Intensif   IFR Très Intensif
Visi : 
Plafond : 
>= 8 km
>= 3000ft
5 à 8 km
1000 à 3000 ft
1500m à 5 km
500 à 1000 ft
800 à 1500m
200 à 500 ft
< 800m
< 200 ft
Symboles :   Orages  Brouillard  Fortes neiges  Fortes précipitations  Vent > 20 kt
SIGMETs :   Divers  Orages  Givrage  Turbulence  Onde Orograph.  Cendres Volcan.






- Altitude de l'aérodrome : 302 ft
- Code IATA : CGN


EDDK - Cologne Bonn

DERNIER METAR :
  • 162350Z AUTO 14005KT 9999 FEW040 15/13 Q1010 NOSIG

METARs EXPIRÉS :
  • 162320Z AUTO 15006KT 9999 FEW038 BKN045 14/13 Q1010 NOSIG
  • 162250Z AUTO 15005KT 9999 SCT043 14/13 Q1010 NOSIG
  • 162220Z AUTO 14006KT 9999 SCT049 14/13 Q1010 NOSIG
  • 162150Z AUTO 12004KT 070V180 CAVOK 14/13 Q1010 NOSIG
  • 162120Z AUTO 17007KT 9999 FEW048 14/13 Q1010 NOSIG
  • 162050Z AUTO 16006KT 060V170 CAVOK 14/13 Q1009 NOSIG
  • 162020Z AUTO 16009KT CAVOK 15/13 Q1009 NOSIG
  • 161950Z AUTO 16006KT 130V190 CAVOK 15/14 Q1009 NOSIG
  • 161920Z AUTO 16009KT 9999 VCSH FEW046 FEW///TCU 15/14 Q1009 RESHRA BECMG 13004KT
  • 161850Z AUTO 20012KT 9999 SHRA FEW036 FEW///CB 16/13 Q1009 BECMG 17007KT NSW

TAF TAF EDDK
Valide du 17 à 00h jusqu'au 18 à 06h UTC


162300Z 1700/1806 14004KT 9999 BKN035
PROB30
TEMPO 1704/1708 20010KT SHRA BKN020TCU
BECMG 1708/1711 23007KT
TEMPO 1710/1717 SHRA BKN030CB
PROB30
TEMPO 1712/1716 4000 TSRA
BECMG 1716/1719 15004KT



MET'MAP, la Météo Aéronautique d'un coup d'oeil ! - Copyright ORBIFLY Décembre 2007 - Disclaimer

ORBIFLY MET'MAP TEAM :

Programmation & Développement : Alexandra Zaïnal
Sur une idée originale de : Baudouin d'Aumeries
Soutien technique & logistique : Manuel Goepfert
Assistance : Marc-Olivier Méhu




SOURCES & CREDITS :

   NOAA